Time;durP1;ratioP1;P1;durP2;ratioP2;P2;SDS_P1;SDS_P2;PMS_P1;PMS_P2;Temp;Humidity;BMP_temperature;BMP_pressure;BME280_temperature;BME280_humidity;BME280_pressure;Samples;Min_cycle;Max_cycle;Signal;HPM_P1;HPM_P2
2022/03/09 00:01:23;;;;;;;;;;;5.40;59.40;;;;;;5090833;28;19924;-87
2022/03/09 00:03:50;;;;;;;;;;;5.40;59.40;;;;;;5089633;28;20255;-87
2022/03/09 00:06:17;;;;;;;;;;;5.40;59.40;;;;;;5090968;28;19920;-87
2022/03/09 00:08:43;;;;;;;;;;;5.30;59.40;;;;;;5091118;28;19920;-86
2022/03/09 00:11:10;;;;;;;;;;;5.30;59.40;;;;;;5092540;28;19924;-87
2022/03/09 00:13:37;;;;;;;;;;;5.30;59.30;;;;;;5090700;28;19920;-87
2022/03/09 00:16:04;;;;;;;;;;;5.30;59.30;;;;;;5090774;28;19920;-87
2022/03/09 00:18:32;;;;;;;;;;;5.30;59.30;;;;;;5090818;28;20674;-87
2022/03/09 00:20:58;;;;;;;;;;;5.30;59.30;;;;;;5090365;28;19920;-86
2022/03/09 00:23:27;;;;;;;;;;;5.30;59.30;;;;;;5092811;28;19923;-86
2022/03/09 00:25:54;;;;;;;;;;;5.30;59.30;;;;;;5091313;28;19924;-87
2022/03/09 00:28:21;;;;;;;;;;;5.30;59.30;;;;;;5090310;28;19920;-87
2022/03/09 00:30:48;;;;;;;;;;;5.30;59.30;;;;;;5090674;28;19920;-87
2022/03/09 00:33:15;;;;;;;;;;;5.30;59.30;;;;;;5090993;28;20355;-87
2022/03/09 00:35:44;;;;;;;;;;;5.30;59.30;;;;;;5091252;28;19924;-87
2022/03/09 00:38:11;;;;;;;;;;;5.30;59.30;;;;;;5085908;28;20392;-87
2022/03/09 00:40:37;;;;;;;;;;;5.30;59.30;;;;;;5090621;28;19977;-87
2022/03/09 00:43:04;;;;;;;;;;;5.30;59.40;;;;;;5090428;28;19946;-86
2022/03/09 00:45:34;;;;;;;;;;;5.20;59.40;;;;;;5094591;28;19926;-86
2022/03/09 00:48:01;;;;;;;;;;;5.20;59.40;;;;;;5093002;28;19965;-86
2022/03/09 00:50:28;;;;;;;;;;;5.20;59.40;;;;;;5091990;28;19924;-87
2022/03/09 00:52:55;;;;;;;;;;;5.20;59.40;;;;;;5094595;28;19924;-86
2022/03/09 00:55:22;;;;;;;;;;;5.20;59.50;;;;;;5092803;28;19924;-86
2022/03/09 00:57:48;;;;;;;;;;;5.20;59.50;;;;;;5094234;28;19965;-86
2022/03/09 01:00:15;;;;;;;;;;;5.20;59.50;;;;;;5094400;28;20435;-86
2022/03/09 01:02:43;;;;;;;;;;;5.10;59.60;;;;;;5095097;28;19973;-86
2022/03/09 01:05:10;;;;;;;;;;;5.10;59.60;;;;;;5093770;28;19920;-87
2022/03/09 01:07:40;;;;;;;;;;;5.00;59.60;;;;;;5094167;28;19920;-86
2022/03/09 01:10:08;;;;;;;;;;;5.00;59.60;;;;;;5093978;28;20426;-86
2022/03/09 01:12:35;;;;;;;;;;;5.00;59.70;;;;;;5094079;28;20356;-86
2022/03/09 01:15:02;;;;;;;;;;;5.00;59.70;;;;;;5094199;28;20010;-86
2022/03/09 01:17:29;;;;;;;;;;;5.00;59.80;;;;;;5091824;28;19973;-87
2022/03/09 01:19:56;;;;;;;;;;;5.00;59.80;;;;;;5093689;28;19920;-86
2022/03/09 01:22:23;;;;;;;;;;;4.90;59.90;;;;;;5092672;28;19923;-86
2022/03/09 01:24:50;;;;;;;;;;;4.90;59.90;;;;;;5093874;28;19973;-86
2022/03/09 01:27:17;;;;;;;;;;;4.90;60.00;;;;;;5093547;28;19942;-86
2022/03/09 01:29:46;;;;;;;;;;;4.90;60.00;;;;;;5094058;28;19959;-86
2022/03/09 01:32:13;;;;;;;;;;;4.90;60.10;;;;;;5089393;28;20298;-86
2022/03/09 01:34:40;;;;;;;;;;;4.80;60.10;;;;;;5093359;28;19924;-87
2022/03/09 01:37:07;;;;;;;;;;;4.80;60.20;;;;;;5093479;28;20005;-85
2022/03/09 01:39:33;;;;;;;;;;;4.80;60.20;;;;;;5093668;28;20328;-86
2022/03/09 01:42:00;;;;;;;;;;;4.80;60.30;;;;;;5077564;28;20341;-86
2022/03/09 01:44:27;;;;;;;;;;;4.80;60.30;;;;;;5094381;28;19924;-86
2022/03/09 01:46:54;;;;;;;;;;;4.70;60.40;;;;;;5092088;28;19920;-86
2022/03/09 01:49:22;;;;;;;;;;;4.70;60.40;;;;;;5093064;28;20001;-85
2022/03/09 01:51:50;;;;;;;;;;;4.70;60.50;;;;;;5093299;28;20341;-86
2022/03/09 01:54:17;;;;;;;;;;;4.60;60.50;;;;;;5093593;28;19920;-86
2022/03/09 01:56:44;;;;;;;;;;;4.60;60.60;;;;;;5093026;28;19920;-86
2022/03/09 01:59:12;;;;;;;;;;;4.60;60.70;;;;;;5095089;28;19973;-86
2022/03/09 02:01:39;;;;;;;;;;;4.60;60.80;;;;;;5091445;28;19919;-86
2022/03/09 02:04:06;;;;;;;;;;;4.50;60.90;;;;;;5091792;28;20355;-86
2022/03/09 02:06:34;;;;;;;;;;;4.50;60.90;;;;;;5093164;28;20080;-86
2022/03/09 02:11:47;;;;;;;;;;;4.50;61.10;;;;;;5091303;28;19927;-85
2022/03/09 02:14:35;;;;;;;;;;;4.40;61.20;;;;;;5095022;28;19920;-86
2022/03/09 02:17:04;;;;;;;;;;;4.40;61.30;;;;;;5094141;28;19920;-86
2022/03/09 02:19:32;;;;;;;;;;;4.40;61.40;;;;;;5092914;28;19931;-86
2022/03/09 02:22:20;;;;;;;;;;;4.40;61.40;;;;;;5092907;28;19926;-86
2022/03/09 02:24:48;;;;;;;;;;;4.40;61.50;;;;;;5091609;28;19927;-86
2022/03/09 02:27:15;;;;;;;;;;;4.30;61.60;;;;;;5092508;28;19931;-86
2022/03/09 02:29:42;;;;;;;;;;;4.30;61.60;;;;;;5093631;28;19920;-86
2022/03/09 02:32:10;;;;;;;;;;;4.30;61.70;;;;;;5093764;28;19919;-86
2022/03/09 02:34:37;;;;;;;;;;;4.30;61.70;;;;;;5092507;28;19927;-85
2022/03/09 02:37:06;;;;;;;;;;;4.20;61.80;;;;;;5092294;28;20405;-86
2022/03/09 02:39:34;;;;;;;;;;;4.20;61.90;;;;;;5091228;28;19977;-86
2022/03/09 02:42:00;;;;;;;;;;;4.20;61.90;;;;;;5074011;28;19947;-86
2022/03/09 02:44:27;;;;;;;;;;;4.20;62.00;;;;;;5094278;28;20427;-86
2022/03/09 02:46:55;;;;;;;;;;;4.20;62.00;;;;;;5091983;28;19924;-88
2022/03/09 02:49:22;;;;;;;;;;;4.20;62.10;;;;;;5090873;28;20400;-87
2022/03/09 02:51:49;;;;;;;;;;;4.10;62.10;;;;;;5090617;28;19924;-87
2022/03/09 02:54:16;;;;;;;;;;;4.10;62.20;;;;;;5092225;28;20393;-87
2022/03/09 02:56:43;;;;;;;;;;;4.10;62.30;;;;;;5092844;28;19973;-86
2022/03/09 02:59:10;;;;;;;;;;;4.10;62.30;;;;;;5093817;28;19943;-86
2022/03/09 03:01:37;;;;;;;;;;;4.10;62.40;;;;;;5091725;28;20394;-86
2022/03/09 03:04:04;;;;;;;;;;;4.00;62.40;;;;;;5092050;28;20301;-86
2022/03/09 03:06:31;;;;;;;;;;;4.00;62.50;;;;;;5091693;28;20015;-87
2022/03/09 03:08:58;;;;;;;;;;;4.00;62.50;;;;;;5091321;28;19973;-87
2022/03/09 03:11:24;;;;;;;;;;;4.00;62.60;;;;;;5093944;28;19981;-86
2022/03/09 03:13:51;;;;;;;;;;;4.00;62.60;;;;;;5090276;28;19965;-87
2022/03/09 03:16:18;;;;;;;;;;;4.00;62.70;;;;;;5091342;28;19966;-86
2022/03/09 03:18:47;;;;;;;;;;;4.00;62.70;;;;;;5090332;28;19924;-86
2022/03/09 03:21:14;;;;;;;;;;;3.90;62.80;;;;;;5091605;28;19920;-86
2022/03/09 03:23:40;;;;;;;;;;;4.00;62.80;;;;;;5092827;28;20332;-87
2022/03/09 03:26:07;;;;;;;;;;;3.90;62.90;;;;;;5092669;28;19919;-86
2022/03/09 03:28:35;;;;;;;;;;;3.90;62.90;;;;;;5091515;28;19920;-86
2022/03/09 03:31:04;;;;;;;;;;;3.90;63.00;;;;;;5089584;28;19966;-86
2022/03/09 03:33:31;;;;;;;;;;;3.90;63.00;;;;;;5091563;28;20468;-86
2022/03/09 03:35:58;;;;;;;;;;;3.90;63.00;;;;;;5090647;28;19932;-86
2022/03/09 03:38:26;;;;;;;;;;;3.90;63.10;;;;;;5092938;28;19919;-86
2022/03/09 03:40:52;;;;;;;;;;;3.90;63.20;;;;;;5090176;28;19924;-86
2022/03/09 03:43:19;;;;;;;;;;;3.90;63.20;;;;;;5091166;28;20447;-87
2022/03/09 03:45:46;;;;;;;;;;;3.90;63.20;;;;;;5090873;28;19924;-86
2022/03/09 03:48:13;;;;;;;;;;;3.90;63.20;;;;;;5091310;28;20431;-87
2022/03/09 03:50:40;;;;;;;;;;;3.90;63.20;;;;;;5092199;28;19923;-86
2022/03/09 03:53:07;;;;;;;;;;;3.90;63.30;;;;;;5091239;28;20382;-86
2022/03/09 03:55:34;;;;;;;;;;;3.80;63.30;;;;;;5090929;28;19920;-86
2022/03/09 03:58:00;;;;;;;;;;;3.90;63.30;;;;;;5089703;28;19927;-86
2022/03/09 04:00:27;;;;;;;;;;;3.80;63.30;;;;;;5090593;28;19920;-86
2022/03/09 04:02:54;;;;;;;;;;;3.80;63.30;;;;;;5090938;28;20408;-86
2022/03/09 04:05:21;;;;;;;;;;;3.80;63.40;;;;;;5093017;28;19946;-86
2022/03/09 04:07:48;;;;;;;;;;;3.80;63.40;;;;;;5089828;28;19924;-86
2022/03/09 04:10:15;;;;;;;;;;;3.80;63.40;;;;;;5089558;28;19943;-87
2022/03/09 04:12:42;;;;;;;;;;;3.80;63.50;;;;;;5090817;28;19927;-86
2022/03/09 04:15:09;;;;;;;;;;;3.80;63.50;;;;;;5090552;28;20307;-86
2022/03/09 04:17:40;;;;;;;;;;;3.70;63.50;;;;;;5092139;28;19926;-86
2022/03/09 04:20:07;;;;;;;;;;;3.70;63.60;;;;;;5091585;28;19920;-86
2022/03/09 04:22:34;;;;;;;;;;;3.70;63.60;;;;;;5090674;28;19920;-86
2022/03/09 04:25:01;;;;;;;;;;;3.80;63.70;;;;;;5090755;28;19977;-86
2022/03/09 04:27:28;;;;;;;;;;;3.70;63.70;;;;;;5090159;28;20459;-86
2022/03/09 04:29:55;;;;;;;;;;;3.70;63.70;;;;;;5090486;28;19928;-86
2022/03/09 04:32:22;;;;;;;;;;;3.70;63.80;;;;;;5091952;28;19973;-87
2022/03/09 04:34:49;;;;;;;;;;;3.70;63.80;;;;;;5090683;28;20294;-86
2022/03/09 04:37:15;;;;;;;;;;;3.70;63.90;;;;;;5090892;28;19928;-86
2022/03/09 04:39:42;;;;;;;;;;;3.70;63.90;;;;;;5090445;28;19920;-86
2022/03/09 04:42:09;;;;;;;;;;;3.70;63.90;;;;;;5090321;28;19973;-86
2022/03/09 04:44:36;;;;;;;;;;;3.70;64.00;;;;;;5091854;28;19920;-86
2022/03/09 04:47:03;;;;;;;;;;;3.70;64.00;;;;;;5091326;28;19967;-86
2022/03/09 04:49:30;;;;;;;;;;;3.70;64.10;;;;;;5090350;28;19947;-86
2022/03/09 04:51:57;;;;;;;;;;;3.60;64.10;;;;;;5090294;28;19920;-86
2022/03/09 04:54:24;;;;;;;;;;;3.60;64.20;;;;;;5090490;28;19989;-86
2022/03/09 04:56:50;;;;;;;;;;;3.60;64.20;;;;;;5090066;28;19969;-86
2022/03/09 04:59:17;;;;;;;;;;;3.60;64.20;;;;;;5092343;28;20271;-86
2022/03/09 05:01:44;;;;;;;;;;;3.60;64.30;;;;;;5088736;28;19920;-86
2022/03/09 05:04:11;;;;;;;;;;;3.60;64.30;;;;;;5090193;28;19920;-86
2022/03/09 05:06:38;;;;;;;;;;;3.60;64.30;;;;;;5090202;28;19920;-86
2022/03/09 05:09:04;;;;;;;;;;;3.50;64.30;;;;;;5089045;28;19920;-86
2022/03/09 05:11:36;;;;;;;;;;;3.50;64.40;;;;;;5091247;28;19989;-87
2022/03/09 05:14:03;;;;;;;;;;;3.50;64.40;;;;;;5090925;28;19927;-86
2022/03/09 05:16:33;;;;;;;;;;;3.50;64.40;;;;;;5088923;28;19920;-86
2022/03/09 05:19:00;;;;;;;;;;;3.50;64.40;;;;;;5090194;28;19920;-87
2022/03/09 05:21:26;;;;;;;;;;;3.50;64.40;;;;;;5090252;28;19920;-86
2022/03/09 05:23:53;;;;;;;;;;;3.50;64.40;;;;;;5090197;28;19928;-86
2022/03/09 05:26:20;;;;;;;;;;;3.50;64.50;;;;;;5091849;28;19923;-87
2022/03/09 05:28:47;;;;;;;;;;;3.50;64.50;;;;;;5089998;28;19976;-86
2022/03/09 05:31:14;;;;;;;;;;;3.50;64.50;;;;;;5091564;28;19920;-86
2022/03/09 05:33:41;;;;;;;;;;;3.50;64.50;;;;;;5093644;28;19927;-86
2022/03/09 05:36:08;;;;;;;;;;;3.50;64.50;;;;;;5094549;28;19920;-86
2022/03/09 05:38:35;;;;;;;;;;;3.50;64.60;;;;;;5095117;28;19920;-86
2022/03/09 05:41:02;;;;;;;;;;;3.50;64.60;;;;;;5091484;28;20336;-86
2022/03/09 05:43:29;;;;;;;;;;;3.40;64.60;;;;;;5093510;28;19935;-86
2022/03/09 05:45:56;;;;;;;;;;;3.40;64.60;;;;;;5092033;28;19931;-86
2022/03/09 05:48:23;;;;;;;;;;;3.50;64.70;;;;;;5093533;28;20408;-87
2022/03/09 05:50:50;;;;;;;;;;;3.50;64.80;;;;;;5093352;28;19924;-86
2022/03/09 05:53:16;;;;;;;;;;;3.40;64.80;;;;;;5095504;28;19965;-86
2022/03/09 05:55:44;;;;;;;;;;;3.40;64.90;;;;;;5091716;28;19955;-86
2022/03/09 05:58:10;;;;;;;;;;;3.40;64.90;;;;;;5093207;28;19924;-86
2022/03/09 06:00:37;;;;;;;;;;;3.40;65.00;;;;;;5093216;28;19920;-86
2022/03/09 06:03:04;;;;;;;;;;;3.40;65.00;;;;;;5093342;28;19993;-86
2022/03/09 06:05:31;;;;;;;;;;;3.40;65.10;;;;;;5095303;28;19930;-86
2022/03/09 06:07:58;;;;;;;;;;;3.40;65.10;;;;;;5091474;28;20339;-86
2022/03/09 06:10:25;;;;;;;;;;;3.40;65.10;;;;;;5092705;28;19919;-86
2022/03/09 06:12:52;;;;;;;;;;;3.40;65.20;;;;;;5092931;28;20301;-86
2022/03/09 06:15:19;;;;;;;;;;;3.40;65.20;;;;;;5093219;28;19973;-86
2022/03/09 06:17:47;;;;;;;;;;;3.30;65.30;;;;;;5093253;28;19927;-86
2022/03/09 06:20:15;;;;;;;;;;;3.30;65.30;;;;;;5092893;28;19924;-86
2022/03/09 06:22:41;;;;;;;;;;;3.30;65.40;;;;;;5092788;28;19924;-86
2022/03/09 06:25:09;;;;;;;;;;;3.30;65.40;;;;;;5092097;28;20455;-86
2022/03/09 06:27:54;;;;;;;;;;;3.30;65.50;;;;;;5091428;28;19924;-86
2022/03/09 06:30:26;;;;;;;;;;;3.30;65.50;;;;;;5079905;28;19924;-85
2022/03/09 06:32:54;;;;;;;;;;;3.30;65.60;;;;;;5092649;28;19971;-86
2022/03/09 06:35:21;;;;;;;;;;;3.30;65.60;;;;;;5094640;28;20290;-86
2022/03/09 06:37:48;;;;;;;;;;;3.30;65.70;;;;;;5092284;28;19973;-86
2022/03/09 06:40:14;;;;;;;;;;;3.20;65.70;;;;;;5092085;28;19924;-85
2022/03/09 06:42:41;;;;;;;;;;;3.20;65.80;;;;;;5092188;28;19924;-86
2022/03/09 06:45:08;;;;;;;;;;;3.20;65.80;;;;;;5092425;28;19981;-86
2022/03/09 06:47:38;;;;;;;;;;;3.20;65.90;;;;;;5093945;28;20423;-86
2022/03/09 06:50:07;;;;;;;;;;;3.20;65.90;;;;;;5090922;28;19955;-86
2022/03/09 06:52:34;;;;;;;;;;;3.20;66.00;;;;;;5091815;28;20407;-86
2022/03/09 06:55:03;;;;;;;;;;;3.20;66.10;;;;;;5092120;28;19920;-86
2022/03/09 06:57:31;;;;;;;;;;;3.20;66.10;;;;;;5092173;28;19926;-86
2022/03/09 07:00:04;;;;;;;;;;;3.20;66.20;;;;;;5076232;28;19921;-86
2022/03/09 07:02:33;;;;;;;;;;;3.20;66.30;;;;;;5090313;28;19965;-85
2022/03/09 07:05:00;;;;;;;;;;;3.20;66.40;;;;;;5089728;28;20305;-86
2022/03/09 07:07:27;;;;;;;;;;;3.20;66.40;;;;;;5091509;28;19927;-85
2022/03/09 07:09:54;;;;;;;;;;;3.20;66.50;;;;;;5090657;28;19920;-85
2022/03/09 07:12:21;;;;;;;;;;;3.10;66.60;;;;;;5090621;28;19920;-86
2022/03/09 07:14:48;;;;;;;;;;;3.10;66.70;;;;;;5091992;28;19924;-87
2022/03/09 07:17:14;;;;;;;;;;;3.10;66.80;;;;;;5091894;28;19920;-85
2022/03/09 07:19:41;;;;;;;;;;;3.20;66.80;;;;;;5091482;28;19924;-86
2022/03/09 07:22:08;;;;;;;;;;;3.20;66.90;;;;;;5091517;28;19920;-85
2022/03/09 07:24:35;;;;;;;;;;;3.10;67.00;;;;;;5091018;28;20382;-86
2022/03/09 07:27:03;;;;;;;;;;;3.20;67.10;;;;;;5084875;28;20010;-86
2022/03/09 07:29:30;;;;;;;;;;;3.20;67.20;;;;;;5088606;28;20006;-85
2022/03/09 07:32:02;;;;;;;;;;;3.20;67.30;;;;;;5087773;28;20271;-86
2022/03/09 07:34:29;;;;;;;;;;;3.20;67.30;;;;;;5091536;28;20305;-86
2022/03/09 07:36:58;;;;;;;;;;;3.20;67.40;;;;;;5090470;28;19939;-86
2022/03/09 07:39:26;;;;;;;;;;;3.20;67.60;;;;;;5104219;28;19968;-85
2022/03/09 07:41:54;;;;;;;;;;;3.20;67.70;;;;;;5091068;28;19935;-85
2022/03/09 07:44:21;;;;;;;;;;;3.20;67.80;;;;;;5092873;28;19920;-86
2022/03/09 07:46:48;;;;;;;;;;;3.30;67.90;;;;;;5090932;28;20007;-86
2022/03/09 07:49:16;;;;;;;;;;;3.30;68.00;;;;;;5090710;28;19963;-87
2022/03/09 07:51:43;;;;;;;;;;;3.30;68.10;;;;;;5101960;28;19919;-86
2022/03/09 07:54:10;;;;;;;;;;;3.40;68.20;;;;;;5089322;28;19927;-88
2022/03/09 07:56:37;;;;;;;;;;;3.40;68.30;;;;;;5092521;28;19920;-87
2022/03/09 07:59:04;;;;;;;;;;;3.40;68.40;;;;;;5089906;28;20377;-86
2022/03/09 08:01:31;;;;;;;;;;;3.50;68.40;;;;;;5090545;28;20451;-86
2022/03/09 08:03:58;;;;;;;;;;;3.50;68.60;;;;;;5089647;28;19982;-87
2022/03/09 08:06:25;;;;;;;;;;;3.50;68.70;;;;;;5090170;28;20442;-86
2022/03/09 08:08:52;;;;;;;;;;;3.60;68.80;;;;;;5090712;28;19973;-87
2022/03/09 08:11:19;;;;;;;;;;;3.70;68.90;;;;;;5092577;28;19920;-86
2022/03/09 08:13:45;;;;;;;;;;;3.70;68.90;;;;;;5090105;28;20381;-85
2022/03/09 08:16:12;;;;;;;;;;;3.70;69.00;;;;;;5090579;28;19920;-87
2022/03/09 08:18:39;;;;;;;;;;;3.80;69.00;;;;;;5090411;28;19920;-86
2022/03/09 08:21:06;;;;;;;;;;;3.90;69.10;;;;;;5089988;28;19973;-86
2022/03/09 08:23:33;;;;;;;;;;;3.90;69.20;;;;;;5092550;28;19924;-86
2022/03/09 08:26:00;;;;;;;;;;;4.00;69.20;;;;;;5090998;28;19924;-87
2022/03/09 08:28:28;;;;;;;;;;;4.10;69.20;;;;;;5094512;28;19931;-87
2022/03/09 08:30:55;;;;;;;;;;;4.10;69.20;;;;;;5089233;28;19920;-87
2022/03/09 08:33:22;;;;;;;;;;;4.20;69.20;;;;;;5090495;28;19985;-88
2022/03/09 08:35:49;;;;;;;;;;;4.30;69.20;;;;;;5089679;28;20427;-87
2022/03/09 08:38:16;;;;;;;;;;;4.40;69.20;;;;;;5092484;28;19930;-88
2022/03/09 08:40:43;;;;;;;;;;;4.50;69.20;;;;;;5090426;28;19923;-88
2022/03/09 08:43:10;;;;;;;;;;;4.50;69.20;;;;;;5090059;28;20402;-88
2022/03/09 08:45:38;;;;;;;;;;;4.60;69.20;;;;;;5090100;28;19920;-88
2022/03/09 08:48:05;;;;;;;;;;;4.70;69.10;;;;;;5090400;28;19926;-88
2022/03/09 08:50:32;;;;;;;;;;;4.80;69.10;;;;;;5091684;28;19976;-88
2022/03/09 08:53:06;;;;;;;;;;;4.90;69.10;;;;;;5091252;28;19927;-88
2022/03/09 08:55:33;;;;;;;;;;;5.00;69.00;;;;;;5090986;28;19943;-88
2022/03/09 08:58:00;;;;;;;;;;;5.20;68.90;;;;;;5089619;28;20351;-88
2022/03/09 09:00:27;;;;;;;;;;;5.30;68.90;;;;;;5090188;28;19981;-88
2022/03/09 09:02:55;;;;;;;;;;;5.40;68.90;;;;;;5090539;28;19950;-88
2022/03/09 09:05:24;;;;;;;;;;;5.50;68.80;;;;;;5092477;28;20031;-88
2022/03/09 09:07:51;;;;;;;;;;;5.60;68.90;;;;;;5092373;28;20374;-89
2022/03/09 09:10:18;;;;;;;;;;;5.70;68.80;;;;;;5094414;28;19920;-88
2022/03/09 09:12:46;;;;;;;;;;;5.90;68.80;;;;;;5094685;28;19920;-89
2022/03/09 09:15:13;;;;;;;;;;;5.90;68.80;;;;;;5091946;28;19924;-88
2022/03/09 09:17:40;;;;;;;;;;;6.10;68.80;;;;;;5094619;28;19966;-88
2022/03/09 09:20:26;;;;;;;;;;;6.20;68.90;;;;;;5095160;28;20366;-87
2022/03/09 09:22:53;;;;;;;;;;;6.40;68.90;;;;;;5093907;28;19934;-88
2022/03/09 09:25:34;;;;;;;;;;;6.40;68.90;;;;;;5078829;28;20298;-88
2022/03/09 09:28:00;;;;;;;;;;;6.50;68.90;;;;;;5088814;28;19920;-89
2022/03/09 09:30:30;;;;;;;;;;;6.70;68.90;;;;;;5092232;28;20436;-88
2022/03/09 09:32:57;;;;;;;;;;;6.80;69.00;;;;;;5092947;28;19980;-89
2022/03/09 09:35:24;;;;;;;;;;;6.90;69.00;;;;;;5090305;28;19920;-88
2022/03/09 09:37:51;;;;;;;;;;;7.00;69.00;;;;;;5088229;28;19919;-89
2022/03/09 09:40:18;;;;;;;;;;;7.20;69.00;;;;;;5087148;28;19920;-89
2022/03/09 09:42:47;;;;;;;;;;;7.30;69.00;;;;;;5087796;28;20416;-90
2022/03/09 09:45:19;;;;;;;;;;;7.40;69.00;;;;;;5089303;28;19920;-89
2022/03/09 09:47:49;;;;;;;;;;;7.50;69.10;;;;;;5091451;28;19920;-89
2022/03/09 09:50:17;;;;;;;;;;;7.70;69.10;;;;;;5079293;28;19927;-89
2022/03/09 09:52:44;;;;;;;;;;;7.80;69.20;;;;;;5086035;28;19920;-89
2022/03/09 09:55:12;;;;;;;;;;;7.90;69.20;;;;;;5087299;28;20384;-88
2022/03/09 09:57:39;;;;;;;;;;;8.10;69.30;;;;;;5089296;28;20382;-89
2022/03/09 10:00:07;;;;;;;;;;;8.20;69.40;;;;;;5091082;28;19931;-89
2022/03/09 10:02:40;;;;;;;;;;;8.40;69.50;;;;;;5086711;28;19974;-89
2022/03/09 10:05:07;;;;;;;;;;;8.50;69.50;;;;;;5089183;28;19920;-88
2022/03/09 10:07:54;;;;;;;;;;;8.60;69.40;;;;;;5087372;28;20385;-88
2022/03/09 10:10:21;;;;;;;;;;;8.80;69.50;;;;;;5075594;28;19927;-88
2022/03/09 10:12:48;;;;;;;;;;;9.00;69.50;;;;;;5076856;28;20345;-89
2022/03/09 10:15:17;;;;;;;;;;;9.20;69.50;;;;;;5089840;28;19921;-89
2022/03/09 10:17:44;;;;;;;;;;;9.30;69.40;;;;;;5092648;28;19920;-89
2022/03/09 10:20:11;;;;;;;;;;;9.40;69.40;;;;;;5089346;28;20030;-87
2022/03/09 10:22:41;;;;;;;;;;;9.60;69.30;;;;;;5087271;28;19920;-90
2022/03/09 10:25:19;;;;;;;;;;;9.70;69.20;;;;;;5087302;28;19989;-88
2022/03/09 10:27:48;;;;;;;;;;;9.90;69.10;;;;;;5095852;28;19920;-86
2022/03/09 10:30:18;;;;;;;;;;;9.90;69.00;;;;;;5073596;28;20378;-88
2022/03/09 10:32:52;;;;;;;;;;;10.10;68.80;;;;;;5090097;28;19924;-88
2022/03/09 10:35:37;;;;;;;;;;;10.20;68.70;;;;;;5078120;28;19927;-88
2022/03/09 10:38:05;;;;;;;;;;;10.30;68.60;;;;;;5078918;28;19924;-89
2022/03/09 10:40:33;;;;;;;;;;;10.40;68.40;;;;;;5086024;28;20366;-88
2022/03/09 10:43:11;;;;;;;;;;;10.50;68.30;;;;;;5087108;28;19920;-90
2022/03/09 10:45:56;;;;;;;;;;;10.60;68.20;;;;;;5086798;28;19966;-89
2022/03/09 10:48:23;;;;;;;;;;;10.70;68.10;;;;;;5076426;28;19955;-89
2022/03/09 10:50:50;;;;;;;;;;;10.90;68.00;;;;;;5090181;28;19927;-89
2022/03/09 10:53:17;;;;;;;;;;;10.90;67.80;;;;;;5080256;28;19936;-90
2022/03/09 10:55:44;;;;;;;;;;;11.00;67.60;;;;;;5087957;28;19920;-90
2022/03/09 10:58:19;;;;;;;;;;;11.10;67.40;;;;;;5085635;28;20022;-89
2022/03/09 11:00:47;;;;;;;;;;;11.20;67.20;;;;;;5086378;28;19920;-88
2022/03/09 11:03:14;;;;;;;;;;;11.30;67.10;;;;;;5090027;28;20003;-89
2022/03/09 11:05:47;;;;;;;;;;;11.40;66.90;;;;;;5075961;28;20019;-88
2022/03/09 11:08:15;;;;;;;;;;;11.50;66.80;;;;;;5073638;28;19920;-89
2022/03/09 11:10:43;;;;;;;;;;;11.50;66.60;;;;;;5078015;28;20374;-88
2022/03/09 11:13:13;;;;;;;;;;;11.60;66.60;;;;;;5077937;28;19982;-89
2022/03/09 11:15:42;;;;;;;;;;;11.70;66.50;;;;;;5078043;28;19973;-88
2022/03/09 11:18:13;;;;;;;;;;;11.70;66.40;;;;;;5075388;28;20356;-90
2022/03/09 11:20:40;;;;;;;;;;;11.80;66.40;;;;;;5089207;28;19966;-89
2022/03/09 11:23:07;;;;;;;;;;;11.90;66.30;;;;;;5077736;28;19920;-90
2022/03/09 11:25:35;;;;;;;;;;;11.90;66.30;;;;;;5077919;28;19920;-90
2022/03/09 11:28:03;;;;;;;;;;;11.90;66.30;;;;;;5076790;28;19924;-89
2022/03/09 11:30:33;;;;;;;;;;;12.00;66.20;;;;;;5076643;28;20478;-90
2022/03/09 11:33:00;;;;;;;;;;;12.10;66.30;;;;;;5073344;28;19928;-89
2022/03/09 11:35:29;;;;;;;;;;;12.20;66.30;;;;;;5109951;27;19946;-89
2022/03/09 11:37:56;;;;;;;;;;;12.20;66.20;;;;;;5077698;28;19920;-89
2022/03/09 11:40:22;;;;;;;;;;;12.30;66.30;;;;;;5077284;28;19929;-89
2022/03/09 11:42:49;;;;;;;;;;;12.30;66.30;;;;;;5076273;28;19920;-89
2022/03/09 11:45:16;;;;;;;;;;;12.40;66.30;;;;;;5088992;28;19920;-90
2022/03/09 11:47:58;;;;;;;;;;;12.40;66.30;;;;;;5075114;28;19921;-90
2022/03/09 11:50:26;;;;;;;;;;;12.40;66.20;;;;;;5077225;28;19924;-90
2022/03/09 11:52:54;;;;;;;;;;;12.50;66.10;;;;;;5077235;28;19935;-90
2022/03/09 11:55:21;;;;;;;;;;;12.50;66.10;;;;;;5077358;28;20007;-90
2022/03/09 11:57:48;;;;;;;;;;;12.60;66.10;;;;;;5076760;28;19980;-90
2022/03/09 12:00:16;;;;;;;;;;;12.70;66.10;;;;;;5074644;28;20439;-89
2022/03/09 12:02:56;;;;;;;;;;;12.70;66.20;;;;;;5088720;28;19924;-90
2022/03/09 12:05:38;;;;;;;;;;;12.80;66.10;;;;;;5077349;28;19924;-89
2022/03/09 12:08:11;;;;;;;;;;;12.90;66.10;;;;;;5087409;28;19924;-89
2022/03/09 12:10:51;;;;;;;;;;;12.90;66.10;;;;;;5090235;28;19924;-89
2022/03/09 12:13:18;;;;;;;;;;;12.90;66.00;;;;;;5085361;28;19920;-90
2022/03/09 12:16:08;;;;;;;;;;;13.00;65.90;;;;;;5087244;28;19920;-89
2022/03/09 12:18:36;;;;;;;;;;;13.10;65.80;;;;;;5078994;28;20419;-90
2022/03/09 12:21:04;;;;;;;;;;;13.10;65.60;;;;;;5073680;28;19920;-89
2022/03/09 12:23:32;;;;;;;;;;;13.20;65.60;;;;;;5121326;27;19927;-89
2022/03/09 12:26:01;;;;;;;;;;;13.20;65.50;;;;;;5071340;28;19924;-89
2022/03/09 12:28:35;;;;;;;;;;;13.30;65.40;;;;;;5075748;28;19921;-89
2022/03/09 12:31:04;;;;;;;;;;;13.30;65.40;;;;;;5076767;28;19920;-89
2022/03/09 12:33:31;;;;;;;;;;;13.40;65.30;;;;;;5076431;28;19924;-90
2022/03/09 12:36:05;;;;;;;;;;;13.40;65.20;;;;;;5072799;28;19920;-88
2022/03/09 12:38:54;;;;;;;;;;;13.50;65.20;;;;;;5088840;28;19973;-89
2022/03/09 12:41:24;;;;;;;;;;;13.50;65.10;;;;;;5080156;28;19974;-89
2022/03/09 12:43:52;;;;;;;;;;;13.60;65.00;;;;;;5080995;28;19920;-90
2022/03/09 12:46:19;;;;;;;;;;;13.60;65.00;;;;;;5083987;28;20340;-89
2022/03/09 12:48:45;;;;;;;;;;;13.70;65.00;;;;;;5090923;28;20358;-91
2022/03/09 12:51:12;;;;;;;;;;;13.80;65.00;;;;;;5077997;28;19924;-89
2022/03/09 12:53:59;;;;;;;;;;;13.90;64.90;;;;;;5093893;28;19950;-88
2022/03/09 12:56:28;;;;;;;;;;;13.90;64.80;;;;;;5091772;28;19990;-90
2022/03/09 12:59:07;;;;;;;;;;;13.90;64.80;;;;;;5075655;28;20011;-89
2022/03/09 13:01:35;;;;;;;;;;;13.90;64.70;;;;;;5080365;28;19924;-90
2022/03/09 13:04:03;;;;;;;;;;;13.90;64.60;;;;;;5080438;28;19920;-89
2022/03/09 13:06:34;;;;;;;;;;;14.00;64.50;;;;;;5079773;28;19920;-89
2022/03/09 13:09:02;;;;;;;;;;;14.00;64.50;;;;;;5076126;28;19927;-90
2022/03/09 13:11:35;;;;;;;;;;;14.10;64.40;;;;;;5075390;28;20019;-89
2022/03/09 13:14:16;;;;;;;;;;;14.10;64.30;;;;;;5081032;28;19920;-89
2022/03/09 13:16:43;;;;;;;;;;;14.20;64.20;;;;;;5080213;28;19921;-89
2022/03/09 13:19:11;;;;;;;;;;;14.20;64.20;;;;;;5079996;28;20349;-89
2022/03/09 13:21:38;;;;;;;;;;;14.30;64.10;;;;;;5080470;28;19920;-89
2022/03/09 13:24:06;;;;;;;;;;;14.30;64.00;;;;;;5076227;28;20317;-89
2022/03/09 13:26:51;;;;;;;;;;;14.30;63.90;;;;;;5124006;27;20266;-89
2022/03/09 13:29:24;;;;;;;;;;;14.40;63.80;;;;;;5079962;28;19920;-89
2022/03/09 13:31:57;;;;;;;;;;;14.40;63.80;;;;;;5087651;28;20413;-88
2022/03/09 13:34:25;;;;;;;;;;;14.40;63.70;;;;;;5088401;28;20431;-89
2022/03/09 13:37:03;;;;;;;;;;;14.40;63.60;;;;;;5088929;28;19945;-89
2022/03/09 13:39:43;;;;;;;;;;;14.40;63.50;;;;;;5078682;28;19920;-90
2022/03/09 13:42:20;;;;;;;;;;;14.50;63.40;;;;;;5076285;28;19959;-90
2022/03/09 13:44:58;;;;;;;;;;;14.50;63.30;;;;;;5077424;28;19924;-89
2022/03/09 13:47:28;;;;;;;;;;;14.60;63.20;;;;;;5079647;28;20499;-89
2022/03/09 13:49:55;;;;;;;;;;;14.60;63.00;;;;;;5079302;28;20325;-90
2022/03/09 13:52:29;;;;;;;;;;;14.60;63.00;;;;;;5078872;28;19924;-89
2022/03/09 13:54:57;;;;;;;;;;;14.60;63.00;;;;;;5079100;28;20398;-89
2022/03/09 13:57:35;;;;;;;;;;;14.70;63.00;;;;;;5086003;28;20431;-89
2022/03/09 14:00:04;;;;;;;;;;;14.70;62.90;;;;;;5073811;28;19921;-89
2022/03/09 14:02:32;;;;;;;;;;;14.80;62.70;;;;;;5091154;28;19963;-88
2022/03/09 14:04:59;;;;;;;;;;;14.80;62.60;;;;;;5080105;28;19920;-89
2022/03/09 14:07:46;;;;;;;;;;;14.90;62.50;;;;;;5079321;28;19925;-89
2022/03/09 14:10:14;;;;;;;;;;;14.90;62.40;;;;;;5081165;28;19924;-88
2022/03/09 14:12:41;;;;;;;;;;;14.90;62.40;;;;;;5079349;28;20443;-89
2022/03/09 14:15:09;;;;;;;;;;;14.90;62.30;;;;;;5075261;28;19998;-89
2022/03/09 14:17:35;;;;;;;;;;;14.90;62.10;;;;;;5077720;28;20413;-89
2022/03/09 14:20:03;;;;;;;;;;;14.90;62.00;;;;;;5079599;28;20023;-89
2022/03/09 14:22:39;;;;;;;;;;;15.00;61.80;;;;;;5087843;28;20325;-88
2022/03/09 14:25:07;;;;;;;;;;;14.90;61.70;;;;;;5086172;28;19921;-89
2022/03/09 14:27:34;;;;;;;;;;;15.00;61.60;;;;;;5078510;28;19924;-89
2022/03/09 14:30:04;;;;;;;;;;;15.00;61.60;;;;;;5075822;28;19920;-89
2022/03/09 14:32:32;;;;;;;;;;;15.00;61.60;;;;;;5089468;28;20006;-89
2022/03/09 14:34:59;;;;;;;;;;;15.00;61.50;;;;;;5087924;28;19924;-89
2022/03/09 14:37:25;;;;;;;;;;;15.10;61.40;;;;;;5083228;28;19928;-90